sensor_id;sensor_type;location;lat;lon;timestamp;P1;durP1;ratioP1;P2;durP2;ratioP2
5688;SDS011;2869;50.432;8.680;2022-12-11T00:01:42;36.03;;;18.27;;
5688;SDS011;2869;50.432;8.680;2022-12-11T00:04:10;41.47;;;18.00;;
5688;SDS011;2869;50.432;8.680;2022-12-11T00:06:37;39.20;;;18.43;;
5688;SDS011;2869;50.432;8.680;2022-12-11T00:09:03;35.53;;;18.23;;
5688;SDS011;2869;50.432;8.680;2022-12-11T00:11:30;37.17;;;17.20;;
5688;SDS011;2869;50.432;8.680;2022-12-11T00:13:56;34.00;;;16.10;;
5688;SDS011;2869;50.432;8.680;2022-12-11T00:16:24;41.60;;;17.37;;
5688;SDS011;2869;50.432;8.680;2022-12-11T00:18:51;36.30;;;17.07;;
5688;SDS011;2869;50.432;8.680;2022-12-11T00:21:18;36.10;;;17.03;;
5688;SDS011;2869;50.432;8.680;2022-12-11T00:23:45;34.93;;;17.00;;
5688;SDS011;2869;50.432;8.680;2022-12-11T00:26:12;32.60;;;16.23;;
5688;SDS011;2869;50.432;8.680;2022-12-11T00:28:40;37.07;;;17.37;;
5688;SDS011;2869;50.432;8.680;2022-12-11T00:31:08;36.73;;;17.17;;
5688;SDS011;2869;50.432;8.680;2022-12-11T00:33:39;38.20;;;17.40;;
5688;SDS011;2869;50.432;8.680;2022-12-11T00:36:09;31.20;;;15.93;;
5688;SDS011;2869;50.432;8.680;2022-12-11T00:38:37;33.77;;;16.30;;
5688;SDS011;2869;50.432;8.680;2022-12-11T00:41:03;33.93;;;17.67;;
5688;SDS011;2869;50.432;8.680;2022-12-11T00:43:30;37.33;;;17.43;;
5688;SDS011;2869;50.432;8.680;2022-12-11T00:45:57;36.87;;;17.20;;
5688;SDS011;2869;50.432;8.680;2022-12-11T00:48:24;34.57;;;17.47;;
5688;SDS011;2869;50.432;8.680;2022-12-11T00:50:52;39.37;;;18.97;;
5688;SDS011;2869;50.432;8.680;2022-12-11T00:53:18;41.57;;;17.93;;
5688;SDS011;2869;50.432;8.680;2022-12-11T00:55:45;43.17;;;19.10;;
5688;SDS011;2869;50.432;8.680;2022-12-11T00:58:12;37.87;;;18.70;;
5688;SDS011;2869;50.432;8.680;2022-12-11T01:00:39;33.80;;;17.87;;
5688;SDS011;2869;50.432;8.680;2022-12-11T01:03:07;34.90;;;16.00;;
5688;SDS011;2869;50.432;8.680;2022-12-11T01:05:35;35.73;;;16.30;;
5688;SDS011;2869;50.432;8.680;2022-12-11T01:08:03;42.00;;;17.53;;
5688;SDS011;2869;50.432;8.680;2022-12-11T01:10:31;37.20;;;16.83;;
5688;SDS011;2869;50.432;8.680;2022-12-11T01:12:57;35.83;;;17.07;;
5688;SDS011;2869;50.432;8.680;2022-12-11T01:15:27;35.90;;;15.83;;
5688;SDS011;2869;50.432;8.680;2022-12-11T01:17:55;38.37;;;17.27;;
5688;SDS011;2869;50.432;8.680;2022-12-11T01:20:23;40.07;;;19.57;;
5688;SDS011;2869;50.432;8.680;2022-12-11T01:22:51;33.43;;;16.27;;
5688;SDS011;2869;50.432;8.680;2022-12-11T01:25:19;37.93;;;17.57;;
5688;SDS011;2869;50.432;8.680;2022-12-11T01:27:48;35.93;;;17.17;;
5688;SDS011;2869;50.432;8.680;2022-12-11T01:30:16;46.17;;;16.67;;
5688;SDS011;2869;50.432;8.680;2022-12-11T01:32:43;37.10;;;17.53;;
5688;SDS011;2869;50.432;8.680;2022-12-11T01:35:10;35.20;;;17.90;;
5688;SDS011;2869;50.432;8.680;2022-12-11T01:37:38;46.33;;;18.37;;
5688;SDS011;2869;50.432;8.680;2022-12-11T01:40:05;34.40;;;16.73;;
5688;SDS011;2869;50.432;8.680;2022-12-11T01:42:34;38.70;;;17.37;;
5688;SDS011;2869;50.432;8.680;2022-12-11T01:47:59;40.77;;;20.17;;
5688;SDS011;2869;50.432;8.680;2022-12-11T01:50:30;42.07;;;18.50;;
5688;SDS011;2869;50.432;8.680;2022-12-11T01:53:01;43.73;;;20.80;;
5688;SDS011;2869;50.432;8.680;2022-12-11T01:55:31;39.80;;;19.87;;
5688;SDS011;2869;50.432;8.680;2022-12-11T01:57:59;42.00;;;19.70;;
5688;SDS011;2869;50.432;8.680;2022-12-11T02:00:28;48.77;;;21.47;;
5688;SDS011;2869;50.432;8.680;2022-12-11T02:02:54;47.13;;;20.57;;
5688;SDS011;2869;50.432;8.680;2022-12-11T02:05:21;45.37;;;20.90;;
5688;SDS011;2869;50.432;8.680;2022-12-11T02:07:48;44.33;;;19.30;;
5688;SDS011;2869;50.432;8.680;2022-12-11T02:10:19;39.40;;;18.40;;
5688;SDS011;2869;50.432;8.680;2022-12-11T02:12:51;44.07;;;19.50;;
5688;SDS011;2869;50.432;8.680;2022-12-11T02:15:26;37.20;;;18.40;;
5688;SDS011;2869;50.432;8.680;2022-12-11T02:18:01;44.63;;;18.67;;
5688;SDS011;2869;50.432;8.680;2022-12-11T02:20:37;39.97;;;18.80;;
5688;SDS011;2869;50.432;8.680;2022-12-11T02:23:12;40.37;;;17.93;;
5688;SDS011;2869;50.432;8.680;2022-12-11T02:25:56;41.90;;;19.63;;
5688;SDS011;2869;50.432;8.680;2022-12-11T02:28:34;39.07;;;17.80;;
5688;SDS011;2869;50.432;8.680;2022-12-11T02:31:05;40.77;;;17.63;;
5688;SDS011;2869;50.432;8.680;2022-12-11T02:33:37;39.10;;;18.10;;
5688;SDS011;2869;50.432;8.680;2022-12-11T02:36:09;35.20;;;18.10;;
5688;SDS011;2869;50.432;8.680;2022-12-11T02:38:37;37.40;;;17.63;;
5688;SDS011;2869;50.432;8.680;2022-12-11T02:41:06;34.73;;;17.63;;
5688;SDS011;2869;50.432;8.680;2022-12-11T02:43:36;34.77;;;17.00;;
5688;SDS011;2869;50.432;8.680;2022-12-11T02:46:05;36.30;;;16.37;;
5688;SDS011;2869;50.432;8.680;2022-12-11T02:48:33;39.90;;;19.00;;
5688;SDS011;2869;50.432;8.680;2022-12-11T02:51:01;41.53;;;19.83;;
5688;SDS011;2869;50.432;8.680;2022-12-11T02:53:30;41.70;;;18.90;;
5688;SDS011;2869;50.432;8.680;2022-12-11T02:56:03;39.23;;;18.93;;
5688;SDS011;2869;50.432;8.680;2022-12-11T02:58:37;47.27;;;19.07;;
5688;SDS011;2869;50.432;8.680;2022-12-11T03:01:09;50.40;;;20.53;;
5688;SDS011;2869;50.432;8.680;2022-12-11T03:03:36;41.63;;;19.43;;
5688;SDS011;2869;50.432;8.680;2022-12-11T03:06:03;43.90;;;20.63;;
5688;SDS011;2869;50.432;8.680;2022-12-11T03:08:30;44.63;;;21.30;;
5688;SDS011;2869;50.432;8.680;2022-12-11T03:10:57;42.93;;;18.77;;
5688;SDS011;2869;50.432;8.680;2022-12-11T03:13:24;47.47;;;21.13;;
5688;SDS011;2869;50.432;8.680;2022-12-11T03:15:57;54.47;;;21.27;;
5688;SDS011;2869;50.432;8.680;2022-12-11T03:18:33;45.03;;;20.03;;
5688;SDS011;2869;50.432;8.680;2022-12-11T03:21:05;47.00;;;20.33;;
5688;SDS011;2869;50.432;8.680;2022-12-11T03:23:40;45.70;;;21.10;;
5688;SDS011;2869;50.432;8.680;2022-12-11T03:26:12;44.40;;;20.10;;
5688;SDS011;2869;50.432;8.680;2022-12-11T03:28:43;48.80;;;21.30;;
5688;SDS011;2869;50.432;8.680;2022-12-11T03:31:15;52.67;;;22.00;;
5688;SDS011;2869;50.432;8.680;2022-12-11T03:33:46;48.77;;;21.80;;
5688;SDS011;2869;50.432;8.680;2022-12-11T03:36:18;50.53;;;20.80;;
5688;SDS011;2869;50.432;8.680;2022-12-11T03:38:49;50.33;;;21.10;;
5688;SDS011;2869;50.432;8.680;2022-12-11T03:41:19;48.93;;;21.70;;
5688;SDS011;2869;50.432;8.680;2022-12-11T03:43:49;44.67;;;20.70;;
5688;SDS011;2869;50.432;8.680;2022-12-11T03:46:19;51.70;;;21.50;;
5688;SDS011;2869;50.432;8.680;2022-12-11T03:48:48;52.77;;;21.13;;
5688;SDS011;2869;50.432;8.680;2022-12-11T03:51:15;52.83;;;22.40;;
5688;SDS011;2869;50.432;8.680;2022-12-11T03:53:43;48.77;;;21.23;;
5688;SDS011;2869;50.432;8.680;2022-12-11T03:56:10;44.80;;;20.17;;
5688;SDS011;2869;50.432;8.680;2022-12-11T03:58:40;40.93;;;19.20;;
5688;SDS011;2869;50.432;8.680;2022-12-11T04:01:07;49.47;;;20.63;;
5688;SDS011;2869;50.432;8.680;2022-12-11T04:03:35;50.63;;;20.20;;
5688;SDS011;2869;50.432;8.680;2022-12-11T04:06:02;47.17;;;19.57;;
5688;SDS011;2869;50.432;8.680;2022-12-11T04:08:29;42.70;;;20.67;;
5688;SDS011;2869;50.432;8.680;2022-12-11T04:10:56;47.67;;;21.00;;
5688;SDS011;2869;50.432;8.680;2022-12-11T04:13:37;45.63;;;19.90;;
5688;SDS011;2869;50.432;8.680;2022-12-11T04:16:05;49.70;;;21.27;;
5688;SDS011;2869;50.432;8.680;2022-12-11T04:18:31;45.63;;;21.27;;
5688;SDS011;2869;50.432;8.680;2022-12-11T04:21:17;45.70;;;20.27;;
5688;SDS011;2869;50.432;8.680;2022-12-11T04:24:01;52.07;;;21.10;;
5688;SDS011;2869;50.432;8.680;2022-12-11T04:26:43;43.70;;;19.40;;
5688;SDS011;2869;50.432;8.680;2022-12-11T04:29:11;46.80;;;20.70;;
5688;SDS011;2869;50.432;8.680;2022-12-11T04:31:38;51.70;;;21.77;;
5688;SDS011;2869;50.432;8.680;2022-12-11T04:34:05;47.63;;;21.67;;
5688;SDS011;2869;50.432;8.680;2022-12-11T04:36:33;44.53;;;20.90;;
5688;SDS011;2869;50.432;8.680;2022-12-11T04:38:59;46.17;;;20.23;;
5688;SDS011;2869;50.432;8.680;2022-12-11T04:41:26;43.70;;;19.67;;
5688;SDS011;2869;50.432;8.680;2022-12-11T04:43:53;47.77;;;20.90;;
5688;SDS011;2869;50.432;8.680;2022-12-11T04:46:20;47.83;;;20.83;;
5688;SDS011;2869;50.432;8.680;2022-12-11T04:48:49;47.80;;;20.97;;
5688;SDS011;2869;50.432;8.680;2022-12-11T04:51:16;47.67;;;20.97;;
5688;SDS011;2869;50.432;8.680;2022-12-11T04:53:45;46.07;;;21.30;;
5688;SDS011;2869;50.432;8.680;2022-12-11T04:56:13;47.00;;;20.00;;
5688;SDS011;2869;50.432;8.680;2022-12-11T04:58:41;37.70;;;17.60;;
5688;SDS011;2869;50.432;8.680;2022-12-11T05:01:09;52.23;;;21.30;;
5688;SDS011;2869;50.432;8.680;2022-12-11T05:03:37;45.60;;;20.23;;
5688;SDS011;2869;50.432;8.680;2022-12-11T05:06:04;48.33;;;21.57;;
5688;SDS011;2869;50.432;8.680;2022-12-11T05:08:32;43.40;;;21.47;;
5688;SDS011;2869;50.432;8.680;2022-12-11T05:11:02;46.80;;;21.70;;
5688;SDS011;2869;50.432;8.680;2022-12-11T05:13:31;49.17;;;20.80;;
5688;SDS011;2869;50.432;8.680;2022-12-11T05:15:58;46.63;;;20.83;;
5688;SDS011;2869;50.432;8.680;2022-12-11T05:18:25;49.93;;;21.10;;
5688;SDS011;2869;50.432;8.680;2022-12-11T05:20:55;40.33;;;18.97;;
5688;SDS011;2869;50.432;8.680;2022-12-11T05:23:22;44.57;;;20.00;;
5688;SDS011;2869;50.432;8.680;2022-12-11T05:25:52;50.63;;;21.57;;
5688;SDS011;2869;50.432;8.680;2022-12-11T05:28:20;60.17;;;22.07;;
5688;SDS011;2869;50.432;8.680;2022-12-11T05:30:53;50.53;;;20.33;;
5688;SDS011;2869;50.432;8.680;2022-12-11T05:33:20;44.50;;;20.13;;
5688;SDS011;2869;50.432;8.680;2022-12-11T05:35:47;45.70;;;19.97;;
5688;SDS011;2869;50.432;8.680;2022-12-11T05:38:14;57.07;;;21.60;;
5688;SDS011;2869;50.432;8.680;2022-12-11T05:40:40;58.80;;;20.37;;
5688;SDS011;2869;50.432;8.680;2022-12-11T05:43:07;52.07;;;21.43;;
5688;SDS011;2869;50.432;8.680;2022-12-11T05:45:35;48.30;;;20.43;;
5688;SDS011;2869;50.432;8.680;2022-12-11T05:48:02;55.30;;;20.97;;
5688;SDS011;2869;50.432;8.680;2022-12-11T05:50:29;46.70;;;21.03;;
5688;SDS011;2869;50.432;8.680;2022-12-11T05:52:56;49.20;;;22.50;;
5688;SDS011;2869;50.432;8.680;2022-12-11T05:55:23;51.03;;;21.93;;
5688;SDS011;2869;50.432;8.680;2022-12-11T05:57:50;53.17;;;22.60;;
5688;SDS011;2869;50.432;8.680;2022-12-11T06:00:17;50.87;;;21.10;;
5688;SDS011;2869;50.432;8.680;2022-12-11T06:02:44;55.30;;;21.43;;
5688;SDS011;2869;50.432;8.680;2022-12-11T06:05:11;56.27;;;21.37;;
5688;SDS011;2869;50.432;8.680;2022-12-11T06:07:38;50.40;;;21.63;;
5688;SDS011;2869;50.432;8.680;2022-12-11T06:10:05;52.57;;;22.80;;
5688;SDS011;2869;50.432;8.680;2022-12-11T06:12:32;55.30;;;22.93;;
5688;SDS011;2869;50.432;8.680;2022-12-11T06:14:59;57.60;;;22.97;;
5688;SDS011;2869;50.432;8.680;2022-12-11T06:17:25;57.67;;;23.73;;
5688;SDS011;2869;50.432;8.680;2022-12-11T06:19:53;57.67;;;24.87;;
5688;SDS011;2869;50.432;8.680;2022-12-11T06:22:20;53.10;;;23.10;;
5688;SDS011;2869;50.432;8.680;2022-12-11T06:24:47;51.53;;;22.23;;
5688;SDS011;2869;50.432;8.680;2022-12-11T06:27:13;56.40;;;23.40;;
5688;SDS011;2869;50.432;8.680;2022-12-11T06:29:40;67.40;;;24.40;;
5688;SDS011;2869;50.432;8.680;2022-12-11T06:32:06;52.20;;;22.30;;
5688;SDS011;2869;50.432;8.680;2022-12-11T06:34:34;62.87;;;24.10;;
5688;SDS011;2869;50.432;8.680;2022-12-11T06:37:02;56.63;;;21.17;;
5688;SDS011;2869;50.432;8.680;2022-12-11T06:39:29;59.63;;;24.43;;
5688;SDS011;2869;50.432;8.680;2022-12-11T06:41:55;57.97;;;23.00;;
5688;SDS011;2869;50.432;8.680;2022-12-11T06:44:22;58.43;;;23.37;;
5688;SDS011;2869;50.432;8.680;2022-12-11T06:46:49;55.17;;;23.90;;
5688;SDS011;2869;50.432;8.680;2022-12-11T06:49:15;55.43;;;23.07;;
5688;SDS011;2869;50.432;8.680;2022-12-11T06:51:42;55.50;;;22.33;;
5688;SDS011;2869;50.432;8.680;2022-12-11T06:54:10;56.60;;;23.10;;
5688;SDS011;2869;50.432;8.680;2022-12-11T06:56:36;48.50;;;21.50;;
5688;SDS011;2869;50.432;8.680;2022-12-11T06:59:03;45.20;;;20.73;;
5688;SDS011;2869;50.432;8.680;2022-12-11T07:01:31;60.07;;;22.90;;
5688;SDS011;2869;50.432;8.680;2022-12-11T07:03:58;57.90;;;23.00;;
5688;SDS011;2869;50.432;8.680;2022-12-11T07:06:26;54.27;;;22.20;;
5688;SDS011;2869;50.432;8.680;2022-12-11T07:08:53;55.43;;;22.17;;
5688;SDS011;2869;50.432;8.680;2022-12-11T07:11:22;61.27;;;22.90;;
5688;SDS011;2869;50.432;8.680;2022-12-11T07:13:49;54.20;;;23.10;;
5688;SDS011;2869;50.432;8.680;2022-12-11T07:16:16;55.47;;;23.13;;
5688;SDS011;2869;50.432;8.680;2022-12-11T07:18:45;58.07;;;24.73;;
5688;SDS011;2869;50.432;8.680;2022-12-11T07:21:13;60.00;;;23.90;;
5688;SDS011;2869;50.432;8.680;2022-12-11T07:23:40;54.73;;;22.97;;
5688;SDS011;2869;50.432;8.680;2022-12-11T07:26:07;54.63;;;22.57;;
5688;SDS011;2869;50.432;8.680;2022-12-11T07:28:37;52.07;;;21.70;;
5688;SDS011;2869;50.432;8.680;2022-12-11T07:31:04;56.30;;;23.93;;
5688;SDS011;2869;50.432;8.680;2022-12-11T07:33:31;53.33;;;22.47;;
5688;SDS011;2869;50.432;8.680;2022-12-11T07:35:59;54.83;;;23.20;;
5688;SDS011;2869;50.432;8.680;2022-12-11T07:38:27;52.13;;;21.30;;
5688;SDS011;2869;50.432;8.680;2022-12-11T07:40:53;44.93;;;21.30;;
5688;SDS011;2869;50.432;8.680;2022-12-11T07:43:20;56.27;;;23.83;;
5688;SDS011;2869;50.432;8.680;2022-12-11T07:45:48;57.70;;;23.90;;
5688;SDS011;2869;50.432;8.680;2022-12-11T07:48:15;51.40;;;24.53;;
5688;SDS011;2869;50.432;8.680;2022-12-11T07:50:41;56.60;;;23.33;;
5688;SDS011;2869;50.432;8.680;2022-12-11T07:53:08;52.83;;;22.50;;
5688;SDS011;2869;50.432;8.680;2022-12-11T07:55:35;51.80;;;23.37;;
5688;SDS011;2869;50.432;8.680;2022-12-11T07:58:01;56.80;;;23.43;;
5688;SDS011;2869;50.432;8.680;2022-12-11T08:00:28;53.70;;;23.90;;
5688;SDS011;2869;50.432;8.680;2022-12-11T08:02:56;53.00;;;23.60;;
5688;SDS011;2869;50.432;8.680;2022-12-11T08:05:23;55.23;;;23.63;;
5688;SDS011;2869;50.432;8.680;2022-12-11T08:07:50;53.37;;;24.30;;
5688;SDS011;2869;50.432;8.680;2022-12-11T08:10:17;53.40;;;22.97;;
5688;SDS011;2869;50.432;8.680;2022-12-11T08:12:44;62.10;;;25.20;;
5688;SDS011;2869;50.432;8.680;2022-12-11T08:15:10;52.93;;;23.97;;
5688;SDS011;2869;50.432;8.680;2022-12-11T08:17:37;59.47;;;23.07;;
5688;SDS011;2869;50.432;8.680;2022-12-11T08:20:06;58.83;;;25.50;;
5688;SDS011;2869;50.432;8.680;2022-12-11T08:22:33;55.70;;;23.50;;
5688;SDS011;2869;50.432;8.680;2022-12-11T08:25:00;52.90;;;23.73;;
5688;SDS011;2869;50.432;8.680;2022-12-11T08:27:27;59.30;;;24.60;;
5688;SDS011;2869;50.432;8.680;2022-12-11T08:29:53;63.00;;;26.30;;
5688;SDS011;2869;50.432;8.680;2022-12-11T08:32:20;67.60;;;23.23;;
5688;SDS011;2869;50.432;8.680;2022-12-11T08:34:47;52.83;;;23.03;;
5688;SDS011;2869;50.432;8.680;2022-12-11T08:37:17;54.07;;;23.73;;
5688;SDS011;2869;50.432;8.680;2022-12-11T08:39:43;53.13;;;24.73;;
5688;SDS011;2869;50.432;8.680;2022-12-11T08:42:11;51.63;;;23.90;;
5688;SDS011;2869;50.432;8.680;2022-12-11T08:44:37;54.47;;;22.50;;
5688;SDS011;2869;50.432;8.680;2022-12-11T08:47:04;55.53;;;22.30;;
5688;SDS011;2869;50.432;8.680;2022-12-11T08:49:31;55.70;;;24.00;;
5688;SDS011;2869;50.432;8.680;2022-12-11T08:51:57;62.77;;;23.23;;
5688;SDS011;2869;50.432;8.680;2022-12-11T08:54:25;54.33;;;21.63;;
5688;SDS011;2869;50.432;8.680;2022-12-11T08:56:52;52.13;;;22.20;;
5688;SDS011;2869;50.432;8.680;2022-12-11T08:59:18;58.20;;;24.93;;
5688;SDS011;2869;50.432;8.680;2022-12-11T09:01:45;48.13;;;21.93;;
5688;SDS011;2869;50.432;8.680;2022-12-11T09:04:12;53.03;;;23.67;;
5688;SDS011;2869;50.432;8.680;2022-12-11T09:06:38;43.63;;;20.33;;
5688;SDS011;2869;50.432;8.680;2022-12-11T09:09:05;51.93;;;23.13;;
5688;SDS011;2869;50.432;8.680;2022-12-11T09:11:34;55.87;;;23.87;;
5688;SDS011;2869;50.432;8.680;2022-12-11T09:14:02;52.80;;;21.80;;
5688;SDS011;2869;50.432;8.680;2022-12-11T09:16:29;53.83;;;21.07;;
5688;SDS011;2869;50.432;8.680;2022-12-11T09:18:56;51.70;;;23.47;;
5688;SDS011;2869;50.432;8.680;2022-12-11T09:21:24;49.30;;;21.20;;
5688;SDS011;2869;50.432;8.680;2022-12-11T09:23:52;56.23;;;24.27;;
5688;SDS011;2869;50.432;8.680;2022-12-11T09:26:20;54.70;;;25.63;;
5688;SDS011;2869;50.432;8.680;2022-12-11T09:28:49;52.20;;;23.80;;
5688;SDS011;2869;50.432;8.680;2022-12-11T09:31:18;56.43;;;25.10;;
5688;SDS011;2869;50.432;8.680;2022-12-11T09:33:47;59.20;;;24.83;;
5688;SDS011;2869;50.432;8.680;2022-12-11T09:36:15;49.47;;;23.43;;
5688;SDS011;2869;50.432;8.680;2022-12-11T09:38:42;47.20;;;20.87;;
5688;SDS011;2869;50.432;8.680;2022-12-11T09:41:22;43.03;;;20.20;;
5688;SDS011;2869;50.432;8.680;2022-12-11T09:44:00;48.00;;;21.87;;
5688;SDS011;2869;50.432;8.680;2022-12-11T09:46:33;49.73;;;22.20;;
5688;SDS011;2869;50.432;8.680;2022-12-11T09:49:01;52.47;;;24.40;;
5688;SDS011;2869;50.432;8.680;2022-12-11T09:51:31;57.20;;;22.70;;
5688;SDS011;2869;50.432;8.680;2022-12-11T09:54:02;52.73;;;22.00;;
5688;SDS011;2869;50.432;8.680;2022-12-11T09:56:30;55.33;;;23.70;;
5688;SDS011;2869;50.432;8.680;2022-12-11T09:59:02;49.10;;;23.60;;
5688;SDS011;2869;50.432;8.680;2022-12-11T10:01:40;59.67;;;23.73;;
5688;SDS011;2869;50.432;8.680;2022-12-11T10:04:19;57.03;;;25.27;;
5688;SDS011;2869;50.432;8.680;2022-12-11T10:06:59;50.73;;;22.73;;
5688;SDS011;2869;50.432;8.680;2022-12-11T10:09:35;58.80;;;22.97;;
5688;SDS011;2869;50.432;8.680;2022-12-11T10:12:11;56.77;;;22.47;;
5688;SDS011;2869;50.432;8.680;2022-12-11T10:14:49;62.00;;;23.73;;
5688;SDS011;2869;50.432;8.680;2022-12-11T10:17:26;50.30;;;22.53;;
5688;SDS011;2869;50.432;8.680;2022-12-11T10:19:55;53.50;;;21.40;;
5688;SDS011;2869;50.432;8.680;2022-12-11T10:22:28;51.47;;;20.63;;
5688;SDS011;2869;50.432;8.680;2022-12-11T10:24:58;44.90;;;19.30;;
5688;SDS011;2869;50.432;8.680;2022-12-11T10:27:27;42.53;;;19.67;;
5688;SDS011;2869;50.432;8.680;2022-12-11T10:30:00;42.80;;;18.80;;
5688;SDS011;2869;50.432;8.680;2022-12-11T10:32:32;46.00;;;20.40;;
5688;SDS011;2869;50.432;8.680;2022-12-11T10:35:06;40.23;;;18.67;;
5688;SDS011;2869;50.432;8.680;2022-12-11T10:37:42;40.73;;;20.10;;
5688;SDS011;2869;50.432;8.680;2022-12-11T10:40:09;46.13;;;20.40;;
5688;SDS011;2869;50.432;8.680;2022-12-11T10:42:37;45.60;;;20.53;;
5688;SDS011;2869;50.432;8.680;2022-12-11T10:45:05;43.03;;;21.20;;
5688;SDS011;2869;50.432;8.680;2022-12-11T10:47:33;50.23;;;20.73;;
5688;SDS011;2869;50.432;8.680;2022-12-11T10:50:01;42.20;;;21.67;;
5688;SDS011;2869;50.432;8.680;2022-12-11T10:52:30;45.73;;;21.43;;
5688;SDS011;2869;50.432;8.680;2022-12-11T10:54:59;41.40;;;19.80;;
5688;SDS011;2869;50.432;8.680;2022-12-11T10:57:30;46.07;;;17.80;;
5688;SDS011;2869;50.432;8.680;2022-12-11T10:59:59;38.70;;;17.97;;
5688;SDS011;2869;50.432;8.680;2022-12-11T11:02:27;40.27;;;18.87;;
5688;SDS011;2869;50.432;8.680;2022-12-11T11:04:57;39.43;;;17.63;;
5688;SDS011;2869;50.432;8.680;2022-12-11T11:07:26;42.00;;;18.37;;
5688;SDS011;2869;50.432;8.680;2022-12-11T11:10:04;33.93;;;17.47;;
5688;SDS011;2869;50.432;8.680;2022-12-11T11:12:40;37.90;;;17.67;;
5688;SDS011;2869;50.432;8.680;2022-12-11T11:15:10;45.80;;;20.97;;
5688;SDS011;2869;50.432;8.680;2022-12-11T11:17:42;50.00;;;22.83;;
5688;SDS011;2869;50.432;8.680;2022-12-11T11:20:12;42.37;;;20.10;;
5688;SDS011;2869;50.432;8.680;2022-12-11T11:22:43;50.47;;;21.53;;
5688;SDS011;2869;50.432;8.680;2022-12-11T11:25:14;48.23;;;20.67;;
5688;SDS011;2869;50.432;8.680;2022-12-11T11:27:44;41.07;;;18.40;;
5688;SDS011;2869;50.432;8.680;2022-12-11T11:30:17;46.90;;;20.97;;
5688;SDS011;2869;50.432;8.680;2022-12-11T11:32:47;44.87;;;20.20;;
5688;SDS011;2869;50.432;8.680;2022-12-11T11:35:17;48.03;;;21.93;;
5688;SDS011;2869;50.432;8.680;2022-12-11T11:37:51;23.07;;;11.33;;
5688;SDS011;2869;50.432;8.680;2022-12-11T11:40:23;41.37;;;18.53;;
5688;SDS011;2869;50.432;8.680;2022-12-11T11:42:55;54.23;;;21.27;;
5688;SDS011;2869;50.432;8.680;2022-12-11T11:45:30;54.40;;;22.60;;
5688;SDS011;2869;50.432;8.680;2022-12-11T11:48:02;40.43;;;16.73;;
5688;SDS011;2869;50.432;8.680;2022-12-11T11:50:46;38.50;;;19.10;;
5688;SDS011;2869;50.432;8.680;2022-12-11T11:53:16;39.57;;;17.70;;
5688;SDS011;2869;50.432;8.680;2022-12-11T11:55:48;38.37;;;17.93;;
5688;SDS011;2869;50.432;8.680;2022-12-11T11:58:20;33.80;;;17.63;;
5688;SDS011;2869;50.432;8.680;2022-12-11T12:00:52;58.60;;;21.43;;
5688;SDS011;2869;50.432;8.680;2022-12-11T12:03:21;39.70;;;17.50;;
5688;SDS011;2869;50.432;8.680;2022-12-11T12:05:51;32.37;;;14.90;;
5688;SDS011;2869;50.432;8.680;2022-12-11T12:08:25;28.43;;;12.07;;
5688;SDS011;2869;50.432;8.680;2022-12-11T12:11:00;25.67;;;12.37;;
5688;SDS011;2869;50.432;8.680;2022-12-11T12:13:35;26.93;;;12.03;;
5688;SDS011;2869;50.432;8.680;2022-12-11T12:16:11;27.10;;;11.10;;
5688;SDS011;2869;50.432;8.680;2022-12-11T12:18:47;26.23;;;11.60;;
5688;SDS011;2869;50.432;8.680;2022-12-11T12:21:22;26.10;;;11.00;;
5688;SDS011;2869;50.432;8.680;2022-12-11T12:24:01;20.33;;;10.00;;
5688;SDS011;2869;50.432;8.680;2022-12-11T12:26:37;23.07;;;10.83;;
5688;SDS011;2869;50.432;8.680;2022-12-11T12:29:11;23.27;;;10.27;;
5688;SDS011;2869;50.432;8.680;2022-12-11T12:31:54;17.90;;;9.17;;
5688;SDS011;2869;50.432;8.680;2022-12-11T12:34:36;17.80;;;9.13;;
5688;SDS011;2869;50.432;8.680;2022-12-11T12:37:11;19.40;;;9.03;;
5688;SDS011;2869;50.432;8.680;2022-12-11T12:39:49;24.50;;;10.47;;
5688;SDS011;2869;50.432;8.680;2022-12-11T12:42:27;17.80;;;9.70;;
5688;SDS011;2869;50.432;8.680;2022-12-11T12:45:22;25.03;;;10.50;;
5688;SDS011;2869;50.432;8.680;2022-12-11T12:47:51;20.53;;;9.33;;
5688;SDS011;2869;50.432;8.680;2022-12-11T12:50:20;21.37;;;9.23;;
5688;SDS011;2869;50.432;8.680;2022-12-11T12:52:49;25.08;;;11.30;;
5688;SDS011;2869;50.432;8.680;2022-12-11T12:55:18;24.37;;;10.73;;
5688;SDS011;2869;50.432;8.680;2022-12-11T12:57:48;24.67;;;10.67;;
5688;SDS011;2869;50.432;8.680;2022-12-11T13:00:26;32.40;;;12.30;;
5688;SDS011;2869;50.432;8.680;2022-12-11T13:02:54;22.00;;;10.10;;
5688;SDS011;2869;50.432;8.680;2022-12-11T13:05:24;28.13;;;11.20;;
5688;SDS011;2869;50.432;8.680;2022-12-11T13:07:53;28.20;;;9.73;;
5688;SDS011;2869;50.432;8.680;2022-12-11T13:10:22;17.97;;;9.00;;
5688;SDS011;2869;50.432;8.680;2022-12-11T13:12:51;25.23;;;10.13;;
5688;SDS011;2869;50.432;8.680;2022-12-11T13:18:28;19.87;;;9.23;;
5688;SDS011;2869;50.432;8.680;2022-12-11T13:20:58;22.03;;;9.63;;
5688;SDS011;2869;50.432;8.680;2022-12-11T13:23:26;17.17;;;7.70;;
5688;SDS011;2869;50.432;8.680;2022-12-11T13:25:55;16.43;;;7.93;;
5688;SDS011;2869;50.432;8.680;2022-12-11T13:31:29;15.93;;;7.20;;
5688;SDS011;2869;50.432;8.680;2022-12-11T13:34:05;19.43;;;8.30;;
5688;SDS011;2869;50.432;8.680;2022-12-11T13:36:39;16.30;;;8.17;;
5688;SDS011;2869;50.432;8.680;2022-12-11T13:39:14;14.83;;;7.70;;
5688;SDS011;2869;50.432;8.680;2022-12-11T13:41:43;14.93;;;7.50;;
5688;SDS011;2869;50.432;8.680;2022-12-11T13:44:14;22.73;;;7.67;;
5688;SDS011;2869;50.432;8.680;2022-12-11T13:46:44;16.40;;;8.30;;
5688;SDS011;2869;50.432;8.680;2022-12-11T13:49:18;14.23;;;7.13;;
5688;SDS011;2869;50.432;8.680;2022-12-11T13:51:51;20.37;;;8.07;;
5688;SDS011;2869;50.432;8.680;2022-12-11T13:54:19;17.43;;;8.20;;
5688;SDS011;2869;50.432;8.680;2022-12-11T13:56:53;19.70;;;8.80;;
5688;SDS011;2869;50.432;8.680;2022-12-11T13:59:28;18.10;;;8.80;;
5688;SDS011;2869;50.432;8.680;2022-12-11T14:01:57;18.03;;;8.27;;
5688;SDS011;2869;50.432;8.680;2022-12-11T14:04:29;18.90;;;7.97;;
5688;SDS011;2869;50.432;8.680;2022-12-11T14:06:59;17.20;;;8.47;;
5688;SDS011;2869;50.432;8.680;2022-12-11T14:09:27;18.60;;;8.80;;
5688;SDS011;2869;50.432;8.680;2022-12-11T14:11:54;20.70;;;8.10;;
5688;SDS011;2869;50.432;8.680;2022-12-11T14:14:26;22.60;;;9.50;;
5688;SDS011;2869;50.432;8.680;2022-12-11T14:17:00;18.93;;;8.47;;
5688;SDS011;2869;50.432;8.680;2022-12-11T14:19:27;21.37;;;10.97;;
5688;SDS011;2869;50.432;8.680;2022-12-11T14:21:58;23.53;;;12.20;;
5688;SDS011;2869;50.432;8.680;2022-12-11T14:24:26;24.60;;;12.50;;
5688;SDS011;2869;50.432;8.680;2022-12-11T14:26:54;35.53;;;16.53;;
5688;SDS011;2869;50.432;8.680;2022-12-11T14:29:22;24.60;;;11.97;;
5688;SDS011;2869;50.432;8.680;2022-12-11T14:31:50;24.27;;;11.23;;
5688;SDS011;2869;50.432;8.680;2022-12-11T14:34:20;19.40;;;10.40;;
5688;SDS011;2869;50.432;8.680;2022-12-11T14:36:50;20.30;;;9.20;;
5688;SDS011;2869;50.432;8.680;2022-12-11T14:39:19;19.23;;;9.20;;
5688;SDS011;2869;50.432;8.680;2022-12-11T14:41:49;22.87;;;10.13;;
5688;SDS011;2869;50.432;8.680;2022-12-11T14:44:20;18.60;;;10.17;;
5688;SDS011;2869;50.432;8.680;2022-12-11T14:46:51;17.67;;;9.50;;
5688;SDS011;2869;50.432;8.680;2022-12-11T14:49:21;26.27;;;12.27;;
5688;SDS011;2869;50.432;8.680;2022-12-11T14:51:53;19.97;;;9.83;;
5688;SDS011;2869;50.432;8.680;2022-12-11T14:54:25;21.50;;;10.83;;
5688;SDS011;2869;50.432;8.680;2022-12-11T14:56:56;18.27;;;9.80;;
5688;SDS011;2869;50.432;8.680;2022-12-11T14:59:25;21.60;;;9.13;;
5688;SDS011;2869;50.432;8.680;2022-12-11T15:01:57;21.17;;;8.87;;
5688;SDS011;2869;50.432;8.680;2022-12-11T15:04:26;22.40;;;9.80;;
5688;SDS011;2869;50.432;8.680;2022-12-11T15:06:56;30.07;;;12.63;;
5688;SDS011;2869;50.432;8.680;2022-12-11T15:09:24;27.17;;;10.50;;
5688;SDS011;2869;50.432;8.680;2022-12-11T15:11:53;29.23;;;11.07;;